sensor_id;sensor_type;location;lat;lon;timestamp;pressure;altitude;pressure_sealevel;temperature;humidity
60642;BME280;46837;52.446;-1.930;2024-01-15T00:00:09;99665.05;;;3.29;70.35
60642;BME280;46837;52.446;-1.930;2024-01-15T00:01:09;99662.00;;;3.28;70.45
60642;BME280;46837;52.446;-1.930;2024-01-15T00:02:09;99661.69;;;3.26;70.35
60642;BME280;46837;52.446;-1.930;2024-01-15T00:03:09;99662.00;;;3.28;70.34
60642;BME280;46837;52.446;-1.930;2024-01-15T00:04:09;99660.43;;;3.30;70.27
60642;BME280;46837;52.446;-1.930;2024-01-15T00:05:09;99665.39;;;3.32;70.39
60642;BME280;46837;52.446;-1.930;2024-01-15T00:06:09;99659.63;;;3.34;70.25
60642;BME280;46837;52.446;-1.930;2024-01-15T00:07:09;99661.89;;;3.33;70.07
60642;BME280;46837;52.446;-1.930;2024-01-15T00:08:09;99662.66;;;3.34;70.12
60642;BME280;46837;52.446;-1.930;2024-01-15T00:09:09;99661.33;;;3.37;70.28
60642;BME280;46837;52.446;-1.930;2024-01-15T00:10:09;99658.66;;;3.34;69.92
60642;BME280;46837;52.446;-1.930;2024-01-15T00:11:09;99658.24;;;3.34;69.78
60642;BME280;46837;52.446;-1.930;2024-01-15T00:12:09;99654.67;;;3.33;69.74
60642;BME280;46837;52.446;-1.930;2024-01-15T00:13:09;99659.57;;;3.28;69.56
60642;BME280;46837;52.446;-1.930;2024-01-15T00:14:09;99656.98;;;3.27;69.64
60642;BME280;46837;52.446;-1.930;2024-01-15T00:15:09;99658.02;;;3.29;69.76
60642;BME280;46837;52.446;-1.930;2024-01-15T00:16:09;99658.94;;;3.29;69.85
60642;BME280;46837;52.446;-1.930;2024-01-15T00:17:09;99655.80;;;3.27;69.72
60642;BME280;46837;52.446;-1.930;2024-01-15T00:18:09;99655.58;;;3.24;69.73
60642;BME280;46837;52.446;-1.930;2024-01-15T00:19:09;99649.21;;;3.20;69.72
60642;BME280;46837;52.446;-1.930;2024-01-15T00:20:09;99654.42;;;3.16;69.72
60642;BME280;46837;52.446;-1.930;2024-01-15T00:21:09;99647.59;;;3.13;69.65
60642;BME280;46837;52.446;-1.930;2024-01-15T00:22:09;99648.58;;;3.11;69.69
60642;BME280;46837;52.446;-1.930;2024-01-15T00:23:09;99650.00;;;3.13;69.76
60642;BME280;46837;52.446;-1.930;2024-01-15T00:24:09;99647.94;;;3.06;69.75
60642;BME280;46837;52.446;-1.930;2024-01-15T00:25:09;99645.64;;;3.02;69.90
60642;BME280;46837;52.446;-1.930;2024-01-15T00:26:09;99642.18;;;2.99;70.00
60642;BME280;46837;52.446;-1.930;2024-01-15T00:27:09;99638.67;;;2.99;70.06
60642;BME280;46837;52.446;-1.930;2024-01-15T00:28:09;99639.96;;;2.93;69.98
60642;BME280;46837;52.446;-1.930;2024-01-15T00:29:09;99639.94;;;2.92;70.10
60642;BME280;46837;52.446;-1.930;2024-01-15T00:30:09;99636.92;;;2.90;70.13
60642;BME280;46837;52.446;-1.930;2024-01-15T00:31:09;99636.92;;;2.83;70.01
60642;BME280;46837;52.446;-1.930;2024-01-15T00:32:09;99636.32;;;2.79;70.23
60642;BME280;46837;52.446;-1.930;2024-01-15T00:33:09;99638.32;;;2.77;70.39
60642;BME280;46837;52.446;-1.930;2024-01-15T00:34:09;99638.06;;;2.67;70.36
60642;BME280;46837;52.446;-1.930;2024-01-15T00:35:09;99637.75;;;2.67;70.59
60642;BME280;46837;52.446;-1.930;2024-01-15T00:36:09;99640.31;;;2.66;70.66
60642;BME280;46837;52.446;-1.930;2024-01-15T00:37:09;99639.97;;;2.61;70.73
60642;BME280;46837;52.446;-1.930;2024-01-15T00:38:09;99635.81;;;2.61;70.77
60642;BME280;46837;52.446;-1.930;2024-01-15T00:39:09;99637.24;;;2.56;70.69
60642;BME280;46837;52.446;-1.930;2024-01-15T00:40:09;99637.41;;;2.56;70.78
60642;BME280;46837;52.446;-1.930;2024-01-15T00:41:09;99641.35;;;2.56;70.77
60642;BME280;46837;52.446;-1.930;2024-01-15T00:42:09;99637.99;;;2.54;70.90
60642;BME280;46837;52.446;-1.930;2024-01-15T00:43:10;99639.06;;;2.51;70.97
60642;BME280;46837;52.446;-1.930;2024-01-15T00:44:09;99637.06;;;2.49;71.00
60642;BME280;46837;52.446;-1.930;2024-01-15T00:45:10;99635.34;;;2.47;71.05
60642;BME280;46837;52.446;-1.930;2024-01-15T00:46:09;99634.31;;;2.45;71.10
60642;BME280;46837;52.446;-1.930;2024-01-15T00:47:09;99636.28;;;2.42;71.14
60642;BME280;46837;52.446;-1.930;2024-01-15T00:48:09;99636.82;;;2.38;71.23
60642;BME280;46837;52.446;-1.930;2024-01-15T00:49:09;99634.72;;;2.39;71.41
60642;BME280;46837;52.446;-1.930;2024-01-15T00:50:09;99637.74;;;2.38;71.31
60642;BME280;46837;52.446;-1.930;2024-01-15T00:51:09;99636.56;;;2.34;71.32
60642;BME280;46837;52.446;-1.930;2024-01-15T00:52:09;99633.61;;;2.35;71.48
60642;BME280;46837;52.446;-1.930;2024-01-15T00:53:09;99637.51;;;2.34;71.50
60642;BME280;46837;52.446;-1.930;2024-01-15T00:54:09;99638.52;;;2.39;71.50
60642;BME280;46837;52.446;-1.930;2024-01-15T00:55:09;99639.42;;;2.44;71.49
60642;BME280;46837;52.446;-1.930;2024-01-15T00:56:09;99636.81;;;2.45;71.40
60642;BME280;46837;52.446;-1.930;2024-01-15T00:57:09;99636.27;;;2.46;71.31
60642;BME280;46837;52.446;-1.930;2024-01-15T00:58:09;99634.92;;;2.41;71.31
60642;BME280;46837;52.446;-1.930;2024-01-15T00:59:09;99635.91;;;2.44;71.36
60642;BME280;46837;52.446;-1.930;2024-01-15T01:00:09;99640.06;;;2.48;71.27
60642;BME280;46837;52.446;-1.930;2024-01-15T01:01:09;99639.83;;;2.44;71.26
60642;BME280;46837;52.446;-1.930;2024-01-15T01:02:09;99637.38;;;2.47;71.38
60642;BME280;46837;52.446;-1.930;2024-01-15T01:03:09;99638.02;;;2.51;71.37
60642;BME280;46837;52.446;-1.930;2024-01-15T01:04:09;99637.94;;;2.45;71.14
60642;BME280;46837;52.446;-1.930;2024-01-15T01:05:09;99635.02;;;2.49;71.37
60642;BME280;46837;52.446;-1.930;2024-01-15T01:06:09;99636.30;;;2.53;71.37
60642;BME280;46837;52.446;-1.930;2024-01-15T01:07:09;99635.33;;;2.53;71.30
60642;BME280;46837;52.446;-1.930;2024-01-15T01:08:09;99632.70;;;2.50;71.29
60642;BME280;46837;52.446;-1.930;2024-01-15T01:09:09;99634.19;;;2.52;71.38
60642;BME280;46837;52.446;-1.930;2024-01-15T01:10:09;99637.14;;;2.54;71.36
60642;BME280;46837;52.446;-1.930;2024-01-15T01:11:11;99636.79;;;2.53;71.32
60642;BME280;46837;52.446;-1.930;2024-01-15T01:12:09;99637.99;;;2.54;71.43
60642;BME280;46837;52.446;-1.930;2024-01-15T01:13:09;99639.00;;;2.57;71.43
60642;BME280;46837;52.446;-1.930;2024-01-15T01:14:09;99637.91;;;2.56;71.41
60642;BME280;46837;52.446;-1.930;2024-01-15T01:15:09;99643.05;;;2.59;71.58
60642;BME280;46837;52.446;-1.930;2024-01-15T01:16:09;99642.40;;;2.63;71.55
60642;BME280;46837;52.446;-1.930;2024-01-15T01:17:09;99638.61;;;2.62;71.39
60642;BME280;46837;52.446;-1.930;2024-01-15T01:18:09;99642.07;;;2.63;71.53
60642;BME280;46837;52.446;-1.930;2024-01-15T01:19:09;99643.61;;;2.65;71.50
60642;BME280;46837;52.446;-1.930;2024-01-15T01:20:11;99642.56;;;2.63;71.43
60642;BME280;46837;52.446;-1.930;2024-01-15T01:21:09;99642.09;;;2.60;71.50
60642;BME280;46837;52.446;-1.930;2024-01-15T01:22:09;99643.62;;;2.61;71.56
60642;BME280;46837;52.446;-1.930;2024-01-15T01:23:09;99642.27;;;2.65;71.74
60642;BME280;46837;52.446;-1.930;2024-01-15T01:24:09;99643.89;;;2.65;71.57
60642;BME280;46837;52.446;-1.930;2024-01-15T01:25:09;99642.80;;;2.65;71.58
60642;BME280;46837;52.446;-1.930;2024-01-15T01:26:09;99643.66;;;2.66;71.73
60642;BME280;46837;52.446;-1.930;2024-01-15T01:27:09;99643.73;;;2.65;71.67
60642;BME280;46837;52.446;-1.930;2024-01-15T01:28:09;99641.71;;;2.68;71.79
60642;BME280;46837;52.446;-1.930;2024-01-15T01:29:09;99640.96;;;2.66;71.60
60642;BME280;46837;52.446;-1.930;2024-01-15T01:30:09;99641.48;;;2.64;71.65
60642;BME280;46837;52.446;-1.930;2024-01-15T01:31:09;99638.91;;;2.60;71.82
60642;BME280;46837;52.446;-1.930;2024-01-15T01:32:09;99638.69;;;2.66;71.86
60642;BME280;46837;52.446;-1.930;2024-01-15T01:33:09;99639.52;;;2.69;71.89
60642;BME280;46837;52.446;-1.930;2024-01-15T01:34:09;99637.50;;;2.70;71.80
60642;BME280;46837;52.446;-1.930;2024-01-15T01:35:09;99633.78;;;2.68;71.78
60642;BME280;46837;52.446;-1.930;2024-01-15T01:36:09;99630.87;;;2.70;71.87
60642;BME280;46837;52.446;-1.930;2024-01-15T01:37:09;99631.53;;;2.73;71.82
60642;BME280;46837;52.446;-1.930;2024-01-15T01:38:09;99628.20;;;2.71;71.84
60642;BME280;46837;52.446;-1.930;2024-01-15T01:39:09;99627.95;;;2.74;71.83
60642;BME280;46837;52.446;-1.930;2024-01-15T01:40:09;99622.88;;;2.72;71.83
60642;BME280;46837;52.446;-1.930;2024-01-15T01:41:09;99624.01;;;2.74;71.99
60642;BME280;46837;52.446;-1.930;2024-01-15T01:42:09;99622.05;;;2.71;71.93
60642;BME280;46837;52.446;-1.930;2024-01-15T01:43:09;99625.29;;;2.61;72.00
60642;BME280;46837;52.446;-1.930;2024-01-15T01:44:09;99623.34;;;2.65;72.26
60642;BME280;46837;52.446;-1.930;2024-01-15T01:45:09;99629.50;;;2.68;72.21
60642;BME280;46837;52.446;-1.930;2024-01-15T01:46:09;99623.89;;;2.63;72.33
60642;BME280;46837;52.446;-1.930;2024-01-15T01:47:09;99625.43;;;2.67;72.48
60642;BME280;46837;52.446;-1.930;2024-01-15T01:48:09;99623.96;;;2.66;72.38
60642;BME280;46837;52.446;-1.930;2024-01-15T01:49:09;99622.21;;;2.65;72.44
60642;BME280;46837;52.446;-1.930;2024-01-15T01:50:09;99619.06;;;2.64;72.48
60642;BME280;46837;52.446;-1.930;2024-01-15T01:51:09;99617.45;;;2.66;72.49
60642;BME280;46837;52.446;-1.930;2024-01-15T01:52:09;99617.56;;;2.66;72.47
60642;BME280;46837;52.446;-1.930;2024-01-15T01:53:09;99618.39;;;2.63;72.56
60642;BME280;46837;52.446;-1.930;2024-01-15T01:54:09;99615.59;;;2.55;72.72
60642;BME280;46837;52.446;-1.930;2024-01-15T01:55:09;99617.66;;;2.60;72.86
60642;BME280;46837;52.446;-1.930;2024-01-15T01:56:09;99616.63;;;2.59;72.77
60642;BME280;46837;52.446;-1.930;2024-01-15T01:57:09;99616.65;;;2.57;72.87
60642;BME280;46837;52.446;-1.930;2024-01-15T01:58:09;99614.85;;;2.58;72.96
60642;BME280;46837;52.446;-1.930;2024-01-15T01:59:09;99616.98;;;2.55;73.05
60642;BME280;46837;52.446;-1.930;2024-01-15T02:00:09;99614.54;;;2.56;73.13
60642;BME280;46837;52.446;-1.930;2024-01-15T02:01:09;99618.18;;;2.53;73.18
60642;BME280;46837;52.446;-1.930;2024-01-15T02:02:09;99614.17;;;2.50;73.34
60642;BME280;46837;52.446;-1.930;2024-01-15T02:03:09;99615.31;;;2.48;73.32
60642;BME280;46837;52.446;-1.930;2024-01-15T02:04:09;99614.41;;;2.49;73.37
60642;BME280;46837;52.446;-1.930;2024-01-15T02:05:09;99612.36;;;2.45;73.52
60642;BME280;46837;52.446;-1.930;2024-01-15T02:06:09;99613.53;;;2.43;73.62
60642;BME280;46837;52.446;-1.930;2024-01-15T02:07:09;99610.35;;;2.40;73.79
60642;BME280;46837;52.446;-1.930;2024-01-15T02:08:09;99603.39;;;2.44;73.80
60642;BME280;46837;52.446;-1.930;2024-01-15T02:09:10;99605.69;;;2.46;73.72
60642;BME280;46837;52.446;-1.930;2024-01-15T02:10:09;99608.75;;;2.45;73.67
60642;BME280;46837;52.446;-1.930;2024-01-15T02:11:09;99613.34;;;2.47;73.77
60642;BME280;46837;52.446;-1.930;2024-01-15T02:12:09;99616.54;;;2.46;73.74
60642;BME280;46837;52.446;-1.930;2024-01-15T02:13:09;99613.73;;;2.46;73.81
60642;BME280;46837;52.446;-1.930;2024-01-15T02:14:09;99613.77;;;2.45;73.92
60642;BME280;46837;52.446;-1.930;2024-01-15T02:15:09;99612.98;;;2.42;73.96
60642;BME280;46837;52.446;-1.930;2024-01-15T02:16:09;99616.73;;;2.41;74.16
60642;BME280;46837;52.446;-1.930;2024-01-15T02:17:09;99613.25;;;2.44;74.16
60642;BME280;46837;52.446;-1.930;2024-01-15T02:18:09;99613.16;;;2.48;74.11
60642;BME280;46837;52.446;-1.930;2024-01-15T02:19:10;99618.01;;;2.48;74.06
60642;BME280;46837;52.446;-1.930;2024-01-15T02:20:09;99616.21;;;2.46;74.01
60642;BME280;46837;52.446;-1.930;2024-01-15T02:21:09;99616.46;;;2.47;74.12
60642;BME280;46837;52.446;-1.930;2024-01-15T02:22:09;99612.03;;;2.48;74.07
60642;BME280;46837;52.446;-1.930;2024-01-15T02:23:11;99617.50;;;2.46;74.04
60642;BME280;46837;52.446;-1.930;2024-01-15T02:24:09;99614.17;;;2.46;74.16
60642;BME280;46837;52.446;-1.930;2024-01-15T02:25:09;99618.63;;;2.48;74.09
60642;BME280;46837;52.446;-1.930;2024-01-15T02:26:09;99616.25;;;2.47;74.13
60642;BME280;46837;52.446;-1.930;2024-01-15T02:27:09;99610.38;;;2.46;74.14
60642;BME280;46837;52.446;-1.930;2024-01-15T02:28:11;99614.18;;;2.44;74.20
60642;BME280;46837;52.446;-1.930;2024-01-15T02:29:09;99609.44;;;2.45;74.12
60642;BME280;46837;52.446;-1.930;2024-01-15T02:30:09;99611.32;;;2.44;74.16
60642;BME280;46837;52.446;-1.930;2024-01-15T02:31:09;99613.01;;;2.37;74.27
60642;BME280;46837;52.446;-1.930;2024-01-15T02:32:09;99613.55;;;2.35;74.42
60642;BME280;46837;52.446;-1.930;2024-01-15T02:33:09;99615.46;;;2.34;74.42
60642;BME280;46837;52.446;-1.930;2024-01-15T02:34:09;99617.27;;;2.29;74.49
60642;BME280;46837;52.446;-1.930;2024-01-15T02:35:09;99610.68;;;2.29;74.56
60642;BME280;46837;52.446;-1.930;2024-01-15T02:36:09;99607.89;;;2.31;74.58
60642;BME280;46837;52.446;-1.930;2024-01-15T02:37:09;99613.46;;;2.26;74.63
60642;BME280;46837;52.446;-1.930;2024-01-15T02:38:09;99612.62;;;2.21;74.71
60642;BME280;46837;52.446;-1.930;2024-01-15T02:39:09;99610.33;;;2.17;74.83
60642;BME280;46837;52.446;-1.930;2024-01-15T02:40:09;99613.64;;;2.14;74.93
60642;BME280;46837;52.446;-1.930;2024-01-15T02:41:09;99608.57;;;2.12;75.03
60642;BME280;46837;52.446;-1.930;2024-01-15T02:42:09;99612.29;;;2.12;75.03
60642;BME280;46837;52.446;-1.930;2024-01-15T02:43:09;99609.91;;;2.08;74.99
60642;BME280;46837;52.446;-1.930;2024-01-15T02:44:09;99610.26;;;2.05;75.17
60642;BME280;46837;52.446;-1.930;2024-01-15T02:45:09;99608.98;;;2.04;75.25
60642;BME280;46837;52.446;-1.930;2024-01-15T02:46:09;99611.95;;;1.98;75.34
60642;BME280;46837;52.446;-1.930;2024-01-15T02:47:09;99614.09;;;1.82;75.93
60642;BME280;46837;52.446;-1.930;2024-01-15T02:48:09;99613.70;;;1.88;76.07
60642;BME280;46837;52.446;-1.930;2024-01-15T02:49:09;99614.09;;;1.88;75.87
60642;BME280;46837;52.446;-1.930;2024-01-15T02:50:09;99617.73;;;1.88;75.76
60642;BME280;46837;52.446;-1.930;2024-01-15T02:51:09;99618.61;;;1.81;76.06
60642;BME280;46837;52.446;-1.930;2024-01-15T02:52:09;99617.26;;;1.79;76.23
60642;BME280;46837;52.446;-1.930;2024-01-15T02:53:09;99622.01;;;1.82;76.21
60642;BME280;46837;52.446;-1.930;2024-01-15T02:54:09;99619.04;;;1.83;76.06
60642;BME280;46837;52.446;-1.930;2024-01-15T02:55:09;99621.63;;;1.75;76.17
60642;BME280;46837;52.446;-1.930;2024-01-15T02:56:09;99621.04;;;1.70;76.60
60642;BME280;46837;52.446;-1.930;2024-01-15T02:57:09;99621.23;;;1.74;76.52
60642;BME280;46837;52.446;-1.930;2024-01-15T02:58:09;99619.65;;;1.72;76.50
60642;BME280;46837;52.446;-1.930;2024-01-15T02:59:09;99613.68;;;1.74;76.42
60642;BME280;46837;52.446;-1.930;2024-01-15T03:00:09;99622.83;;;1.77;76.27
60642;BME280;46837;52.446;-1.930;2024-01-15T03:01:09;99620.06;;;1.75;76.28
60642;BME280;46837;52.446;-1.930;2024-01-15T03:02:09;99622.87;;;1.73;76.36
60642;BME280;46837;52.446;-1.930;2024-01-15T03:03:09;99622.32;;;1.71;76.46
60642;BME280;46837;52.446;-1.930;2024-01-15T03:04:09;99625.71;;;1.73;76.53
60642;BME280;46837;52.446;-1.930;2024-01-15T03:05:09;99621.97;;;1.72;76.44
60642;BME280;46837;52.446;-1.930;2024-01-15T03:06:09;99626.17;;;1.72;76.47
60642;BME280;46837;52.446;-1.930;2024-01-15T03:07:09;99626.33;;;1.68;76.61
60642;BME280;46837;52.446;-1.930;2024-01-15T03:08:09;99630.30;;;1.63;76.92
60642;BME280;46837;52.446;-1.930;2024-01-15T03:09:09;99629.62;;;1.61;77.12
60642;BME280;46837;52.446;-1.930;2024-01-15T03:10:09;99627.07;;;1.57;77.33
60642;BME280;46837;52.446;-1.930;2024-01-15T03:11:09;99627.97;;;1.60;77.21
60642;BME280;46837;52.446;-1.930;2024-01-15T03:12:09;99620.94;;;1.61;77.03
60642;BME280;46837;52.446;-1.930;2024-01-15T03:13:09;99618.53;;;1.58;77.07
60642;BME280;46837;52.446;-1.930;2024-01-15T03:14:09;99622.21;;;1.55;77.21
60642;BME280;46837;52.446;-1.930;2024-01-15T03:15:09;99621.69;;;1.59;77.17
60642;BME280;46837;52.446;-1.930;2024-01-15T03:16:09;99623.27;;;1.61;76.95
60642;BME280;46837;52.446;-1.930;2024-01-15T03:17:09;99622.20;;;1.62;76.78
60642;BME280;46837;52.446;-1.930;2024-01-15T03:18:09;99621.48;;;1.59;76.88
60642;BME280;46837;52.446;-1.930;2024-01-15T03:19:09;99620.91;;;1.55;77.18
60642;BME280;46837;52.446;-1.930;2024-01-15T03:20:09;99623.41;;;1.53;77.22
60642;BME280;46837;52.446;-1.930;2024-01-15T03:21:09;99622.04;;;1.51;77.39
60642;BME280;46837;52.446;-1.930;2024-01-15T03:22:10;99620.75;;;1.51;77.45
60642;BME280;46837;52.446;-1.930;2024-01-15T03:23:09;99621.22;;;1.54;77.32
60642;BME280;46837;52.446;-1.930;2024-01-15T03:24:09;99624.20;;;1.57;77.21
60642;BME280;46837;52.446;-1.930;2024-01-15T03:25:09;99621.09;;;1.57;77.02
60642;BME280;46837;52.446;-1.930;2024-01-15T03:26:09;99623.85;;;1.56;76.95
60642;BME280;46837;52.446;-1.930;2024-01-15T03:27:09;99626.89;;;1.53;77.08
60642;BME280;46837;52.446;-1.930;2024-01-15T03:28:09;99624.96;;;1.55;77.07
60642;BME280;46837;52.446;-1.930;2024-01-15T03:29:09;99621.20;;;1.53;76.98
60642;BME280;46837;52.446;-1.930;2024-01-15T03:30:09;99624.61;;;1.50;77.08
60642;BME280;46837;52.446;-1.930;2024-01-15T03:31:09;99625.14;;;1.52;77.06
60642;BME280;46837;52.446;-1.930;2024-01-15T03:32:09;99622.74;;;1.51;77.03
60642;BME280;46837;52.446;-1.930;2024-01-15T03:33:09;99626.54;;;1.46;77.26
60642;BME280;46837;52.446;-1.930;2024-01-15T03:34:09;99623.45;;;1.47;77.36
60642;BME280;46837;52.446;-1.930;2024-01-15T03:35:09;99623.17;;;1.47;77.32
60642;BME280;46837;52.446;-1.930;2024-01-15T03:36:09;99621.33;;;1.50;77.31
60642;BME280;46837;52.446;-1.930;2024-01-15T03:37:09;99623.86;;;1.49;77.21
60642;BME280;46837;52.446;-1.930;2024-01-15T03:38:09;99622.42;;;1.48;77.14
60642;BME280;46837;52.446;-1.930;2024-01-15T03:39:09;99621.79;;;1.50;77.16
60642;BME280;46837;52.446;-1.930;2024-01-15T03:40:09;99623.42;;;1.49;77.09
60642;BME280;46837;52.446;-1.930;2024-01-15T03:41:09;99619.75;;;1.46;77.05
60642;BME280;46837;52.446;-1.930;2024-01-15T03:42:09;99620.26;;;1.40;77.29
60642;BME280;46837;52.446;-1.930;2024-01-15T03:43:09;99623.01;;;1.40;77.50
60642;BME280;46837;52.446;-1.930;2024-01-15T03:44:09;99624.94;;;1.38;77.49
60642;BME280;46837;52.446;-1.930;2024-01-15T03:45:09;99620.67;;;1.36;77.54
60642;BME280;46837;52.446;-1.930;2024-01-15T03:46:09;99619.67;;;1.37;77.59
60642;BME280;46837;52.446;-1.930;2024-01-15T03:47:09;99615.30;;;1.38;77.49
60642;BME280;46837;52.446;-1.930;2024-01-15T03:48:09;99617.93;;;1.40;77.37
60642;BME280;46837;52.446;-1.930;2024-01-15T03:49:09;99618.07;;;1.41;77.34
60642;BME280;46837;52.446;-1.930;2024-01-15T03:50:09;99618.62;;;1.39;77.23
60642;BME280;46837;52.446;-1.930;2024-01-15T03:51:09;99614.70;;;1.40;77.26
60642;BME280;46837;52.446;-1.930;2024-01-15T03:52:09;99616.47;;;1.38;77.25
60642;BME280;46837;52.446;-1.930;2024-01-15T03:53:09;99619.30;;;1.37;77.18
60642;BME280;46837;52.446;-1.930;2024-01-15T03:54:09;99614.52;;;1.39;77.14
60642;BME280;46837;52.446;-1.930;2024-01-15T03:55:09;99616.98;;;1.39;77.10
60642;BME280;46837;52.446;-1.930;2024-01-15T03:56:09;99618.23;;;1.39;77.15
60642;BME280;46837;52.446;-1.930;2024-01-15T03:57:09;99618.54;;;1.40;77.13
60642;BME280;46837;52.446;-1.930;2024-01-15T03:58:09;99619.07;;;1.42;77.12
60642;BME280;46837;52.446;-1.930;2024-01-15T03:59:09;99620.04;;;1.43;77.03
60642;BME280;46837;52.446;-1.930;2024-01-15T04:00:09;99622.07;;;1.43;76.97
60642;BME280;46837;52.446;-1.930;2024-01-15T04:01:10;99621.38;;;1.43;76.97
60642;BME280;46837;52.446;-1.930;2024-01-15T04:02:09;99626.66;;;1.42;76.93
60642;BME280;46837;52.446;-1.930;2024-01-15T04:03:09;99628.88;;;1.42;76.98
60642;BME280;46837;52.446;-1.930;2024-01-15T04:04:09;99626.22;;;1.41;76.96
60642;BME280;46837;52.446;-1.930;2024-01-15T04:05:09;99626.13;;;1.40;76.92
60642;BME280;46837;52.446;-1.930;2024-01-15T04:06:09;99628.71;;;1.35;77.00
60642;BME280;46837;52.446;-1.930;2024-01-15T04:07:09;99626.69;;;1.36;77.04
60642;BME280;46837;52.446;-1.930;2024-01-15T04:08:09;99627.97;;;1.32;76.98
60642;BME280;46837;52.446;-1.930;2024-01-15T04:09:09;99627.41;;;1.31;76.93
60642;BME280;46837;52.446;-1.930;2024-01-15T04:10:09;99624.54;;;1.27;76.83
60642;BME280;46837;52.446;-1.930;2024-01-15T04:11:09;99626.65;;;1.24;76.83
60642;BME280;46837;52.446;-1.930;2024-01-15T04:12:09;99626.32;;;1.22;76.79
60642;BME280;46837;52.446;-1.930;2024-01-15T04:13:09;99621.91;;;1.21;76.74
60642;BME280;46837;52.446;-1.930;2024-01-15T04:14:09;99622.98;;;1.22;76.75
60642;BME280;46837;52.446;-1.930;2024-01-15T04:15:09;99616.95;;;1.18;76.56
60642;BME280;46837;52.446;-1.930;2024-01-15T04:16:09;99616.65;;;1.14;76.61
60642;BME280;46837;52.446;-1.930;2024-01-15T04:17:09;99614.05;;;1.15;76.71
60642;BME280;46837;52.446;-1.930;2024-01-15T04:18:09;99612.70;;;1.14;76.53
60642;BME280;46837;52.446;-1.930;2024-01-15T04:19:09;99619.06;;;1.12;76.55
60642;BME280;46837;52.446;-1.930;2024-01-15T04:20:09;99611.04;;;1.12;76.47
60642;BME280;46837;52.446;-1.930;2024-01-15T04:21:09;99609.55;;;1.12;76.49
60642;BME280;46837;52.446;-1.930;2024-01-15T04:22:09;99611.34;;;1.11;76.44
60642;BME280;46837;52.446;-1.930;2024-01-15T04:23:09;99609.46;;;1.10;76.30
60642;BME280;46837;52.446;-1.930;2024-01-15T04:24:09;99612.48;;;1.10;76.27
60642;BME280;46837;52.446;-1.930;2024-01-15T04:25:09;99612.28;;;1.10;76.24
60642;BME280;46837;52.446;-1.930;2024-01-15T04:26:09;99614.01;;;1.11;76.07
60642;BME280;46837;52.446;-1.930;2024-01-15T04:27:09;99613.46;;;1.05;75.62
60642;BME280;46837;52.446;-1.930;2024-01-15T04:28:09;99609.94;;;1.01;75.30
60642;BME280;46837;52.446;-1.930;2024-01-15T04:29:09;99607.53;;;1.00;75.27
60642;BME280;46837;52.446;-1.930;2024-01-15T04:30:09;99609.94;;;1.03;75.31
60642;BME280;46837;52.446;-1.930;2024-01-15T04:31:09;99606.43;;;1.03;75.17
60642;BME280;46837;52.446;-1.930;2024-01-15T04:32:09;99604.86;;;1.05;75.31
60642;BME280;46837;52.446;-1.930;2024-01-15T04:33:09;99603.29;;;1.05;75.15
60642;BME280;46837;52.446;-1.930;2024-01-15T04:34:09;99599.62;;;1.07;75.09
60642;BME280;46837;52.446;-1.930;2024-01-15T04:35:09;99596.06;;;1.03;74.86
60642;BME280;46837;52.446;-1.930;2024-01-15T04:36:10;99590.65;;;1.03;75.03
60642;BME280;46837;52.446;-1.930;2024-01-15T04:37:09;99591.23;;;1.05;75.04
60642;BME280;46837;52.446;-1.930;2024-01-15T04:38:09;99596.36;;;1.02;74.66
60642;BME280;46837;52.446;-1.930;2024-01-15T04:39:09;99595.34;;;1.00;74.47
60642;BME280;46837;52.446;-1.930;2024-01-15T04:40:09;99597.50;;;0.99;74.36
60642;BME280;46837;52.446;-1.930;2024-01-15T04:41:10;99592.89;;;0.98;74.28
60642;BME280;46837;52.446;-1.930;2024-01-15T04:42:09;99591.62;;;0.93;73.96
60642;BME280;46837;52.446;-1.930;2024-01-15T04:43:09;99595.27;;;0.95;74.02
60642;BME280;46837;52.446;-1.930;2024-01-15T04:44:09;99598.20;;;0.94;73.80
60642;BME280;46837;52.446;-1.930;2024-01-15T04:45:09;99602.76;;;0.95;73.89
60642;BME280;46837;52.446;-1.930;2024-01-15T04:46:09;99603.60;;;0.96;73.84
60642;BME280;46837;52.446;-1.930;2024-01-15T04:47:09;99605.62;;;0.94;73.55
60642;BME280;46837;52.446;-1.930;2024-01-15T04:48:09;99606.68;;;0.93;73.36
60642;BME280;46837;52.446;-1.930;2024-01-15T04:49:09;99603.61;;;0.93;73.41
60642;BME280;46837;52.446;-1.930;2024-01-15T04:50:09;99606.18;;;0.91;73.48
60642;BME280;46837;52.446;-1.930;2024-01-15T04:51:09;99605.69;;;0.91;73.36
60642;BME280;46837;52.446;-1.930;2024-01-15T04:52:09;99600.88;;;0.90;73.18
60642;BME280;46837;52.446;-1.930;2024-01-15T04:53:09;99602.95;;;0.89;73.11
60642;BME280;46837;52.446;-1.930;2024-01-15T04:54:09;99602.43;;;0.89;73.06
60642;BME280;46837;52.446;-1.930;2024-01-15T04:55:09;99600.93;;;0.89;73.12
60642;BME280;46837;52.446;-1.930;2024-01-15T04:56:09;99593.39;;;0.87;72.85
60642;BME280;46837;52.446;-1.930;2024-01-15T04:57:09;99595.57;;;0.89;73.03
60642;BME280;46837;52.446;-1.930;2024-01-15T04:58:09;99593.84;;;0.89;73.00
60642;BME280;46837;52.446;-1.930;2024-01-15T04:59:09;99588.46;;;0.89;73.06
60642;BME280;46837;52.446;-1.930;2024-01-15T05:00:09;99586.60;;;0.90;72.92
60642;BME280;46837;52.446;-1.930;2024-01-15T05:01:09;99585.27;;;0.92;72.97
60642;BME280;46837;52.446;-1.930;2024-01-15T05:02:09;99583.95;;;0.94;73.03
60642;BME280;46837;52.446;-1.930;2024-01-15T05:03:09;99584.19;;;0.92;72.83
60642;BME280;46837;52.446;-1.930;2024-01-15T05:04:09;99588.06;;;0.92;72.77
60642;BME280;46837;52.446;-1.930;2024-01-15T05:05:09;99589.55;;;0.89;72.55
60642;BME280;46837;52.446;-1.930;2024-01-15T05:06:09;99583.62;;;0.89;72.52
60642;BME280;46837;52.446;-1.930;2024-01-15T05:07:09;99583.13;;;0.90;72.54
60642;BME280;46837;52.446;-1.930;2024-01-15T05:08:09;99583.86;;;0.90;72.61
60642;BME280;46837;52.446;-1.930;2024-01-15T05:09:09;99585.25;;;0.86;72.29
60642;BME280;46837;52.446;-1.930;2024-01-15T05:10:09;99588.21;;;0.83;72.24
60642;BME280;46837;52.446;-1.930;2024-01-15T05:11:09;99586.91;;;0.84;72.41
60642;BME280;46837;52.446;-1.930;2024-01-15T05:12:09;99587.49;;;0.82;72.39
60642;BME280;46837;52.446;-1.930;2024-01-15T05:13:09;99589.52;;;0.82;72.35
60642;BME280;46837;52.446;-1.930;2024-01-15T05:14:09;99589.27;;;0.80;72.16
60642;BME280;46837;52.446;-1.930;2024-01-15T05:15:09;99589.02;;;0.83;72.38
60642;BME280;46837;52.446;-1.930;2024-01-15T05:16:09;99589.04;;;0.79;72.00
60642;BME280;46837;52.446;-1.930;2024-01-15T05:17:09;99590.61;;;0.77;72.17